Main page
METAR-TAF:

METAR-TAF

Airports :

Albacete Airport

Albacete, Spain

latitude: 38-57N, longitude: 001-51W, elevation: 702 m

Current weather observation

The report was made 30 minutes ago, at 15:00 UTC
Wind 3 kt from variable directions
Temperature 13°C
Humidity 51%
Pressure 1017 hPa
Visibility 10 km or more
Scattered clouds at a height of 4500 ft

METAR: LEAB 281500Z VRB03KT 9999 SCT045 13/03 Q1017 NOSIG

Time: 16:30 (15:30 UTC)

Forecast

The report was made 1 hour and 30 minutes ago, at 14:00 UTC
Forecast valid from 28 at 15 UTC to 28 at 24 UTC
Wind 5 kt from variable directions
Visibility 10 km or more
Scattered clouds at a height of 3000 ft
Probability 30% :
Temporary
from 28 at 15 UTC to 28 at 18 UTC
Wind 10 kt from the East/Northeast

TAF: LEAB 281400Z 2815/2824 VRB05KT 9999 SCT030 PROB30 TEMPO 2815/2818 06010KT

Weather observations and forecasts of more than 4000 airports (METAR and TAF reports).

The available stations are represented by yellow and red dots on the map.

Hover mouse over dot to see the name of the station.

Then click to see weather observations and forecasts.

To change the map : click on the green buttons with a black cross to zoom in, on the green button with a dash to zoom out, or on the green arrows for adjacent maps.


METAR-TAF: